Time,TemperatureF,DewpointF,PressureIn,WindDirection,WindDirectionDegrees,WindSpeedMPH,WindSpeedGustMPH,Humidity,HourlyPrecipIn,Conditions,Clouds,dailyrainin,SolarRadiationWatts/m^2,SoftwareType,DateUTC
2013-02-21 00:00:00,26.0,16.0,31.63,WNW,302,3.0,12.0,66,0.00,,,0.01,0,weatherlink.com 1.10,2013-02-21 07:00:00,
2013-02-21 00:15:00,25.7,16.0,31.63,North,350,1.0,7.0,67,0.00,,,0.00,0,weatherlink.com 1.10,2013-02-21 07:15:00,
2013-02-21 00:30:00,25.5,16.0,31.63,North,5,3.0,10.0,67,0.00,,,0.00,0,weatherlink.com 1.10,2013-02-21 07:30:00,
2013-02-21 00:45:00,25.4,16.0,31.63,NNW,333,4.0,8.0,67,0.00,,,0.00,0,weatherlink.com 1.10,2013-02-21 07:45:00,
2013-02-21 01:00:00,25.6,15.0,31.64,WNW,288,3.0,7.0,65,0.00,,,0.00,0,weatherlink.com 1.10,2013-02-21 08:00:00,
2013-02-21 01:15:00,25.4,15.0,31.65,WNW,301,2.0,7.0,65,0.00,,,0.00,0,weatherlink.com 1.10,2013-02-21 08:15:00,
2013-02-21 01:30:00,24.8,15.0,31.65,North,5,4.0,11.0,65,0.00,,,0.00,0,weatherlink.com 1.10,2013-02-21 08:30:00,
2013-02-21 01:45:00,24.4,14.0,31.65,North,355,1.0,4.0,66,0.00,,,0.00,0,weatherlink.com 1.10,2013-02-21 08:45:00,
2013-02-21 02:00:00,23.9,14.0,31.65,NE,53,2.0,3.0,67,0.00,,,0.00,0,weatherlink.com 1.10,2013-02-21 09:00:00,
2013-02-21 02:15:00,23.9,14.0,31.66,NNE,20,0.0,4.0,66,0.00,,,0.00,0,weatherlink.com 1.10,2013-02-21 09:15:00,
2013-02-21 02:30:00,23.8,14.0,31.67,NNE,28,0.0,6.0,67,0.00,,,0.00,0,weatherlink.com 1.10,2013-02-21 09:30:00,
2013-02-21 02:45:00,22.9,14.0,31.67,NNE,28,0.0,1.0,69,0.00,,,0.00,0,weatherlink.com 1.10,2013-02-21 09:45:00,
2013-02-21 03:01:00,22.1,14.0,31.67,NNE,24,1.0,3.0,70,0.00,,,0.00,0,weatherlink.com 1.10,2013-02-21 10:01:00,
2013-02-21 03:16:00,21.9,14.0,31.67,NE,47,1.0,3.0,71,0.00,,,0.00,0,weatherlink.com 1.10,2013-02-21 10:16:00,
2013-02-21 03:31:00,21.8,14.0,31.68,NNE,30,1.0,5.0,71,0.00,,,0.00,0,weatherlink.com 1.10,2013-02-21 10:31:00,
2013-02-21 03:46:00,-999.0,-99.9,31.67,North,-999,-999.0,-999.0,-999,0.00,,,0.00,,weatherlink.com 1.10,2013-02-21 10:46:00,
2013-02-21 04:01:00,-999.0,-99.9,31.67,North,-999,-999.0,-999.0,-999,0.00,,,0.00,,weatherlink.com 1.10,2013-02-21 11:01:00,
2013-02-21 04:16:00,-999.0,-99.9,31.67,North,-999,-999.0,-999.0,-999,0.00,,,0.00,,weatherlink.com 1.10,2013-02-21 11:16:00,
2013-02-21 04:31:00,-999.0,-99.9,31.67,North,-999,-999.0,-999.0,-999,0.00,,,0.00,,weatherlink.com 1.10,2013-02-21 11:31:00,
2013-02-21 04:46:00,-999.0,-99.9,31.67,North,-999,-999.0,-999.0,-999,0.00,,,0.00,,weatherlink.com 1.10,2013-02-21 11:46:00,
2013-02-21 05:01:00,-999.0,-99.9,31.67,North,-999,-999.0,-999.0,-999,0.00,,,0.00,,weatherlink.com 1.10,2013-02-21 12:01:00,
2013-02-21 05:16:00,-999.0,-99.9,31.67,North,-999,-999.0,-999.0,-999,0.00,,,0.00,,weatherlink.com 1.10,2013-02-21 12:16:00,
2013-02-21 05:31:00,-999.0,-99.9,31.67,North,-999,-999.0,-999.0,-999,0.00,,,0.00,,weatherlink.com 1.10,2013-02-21 12:31:00,
2013-02-21 05:46:00,-999.0,-99.9,31.68,North,-999,-999.0,-999.0,-999,0.00,,,0.00,,weatherlink.com 1.10,2013-02-21 12:46:00,
2013-02-21 06:01:00,-999.0,-99.9,31.68,North,-999,-999.0,-999.0,-999,0.00,,,0.00,,weatherlink.com 1.10,2013-02-21 13:01:00,
2013-02-21 06:16:00,-999.0,-99.9,31.69,North,-999,-999.0,-999.0,-999,0.00,,,0.00,,weatherlink.com 1.10,2013-02-21 13:16:00,
2013-02-21 06:31:00,20.3,12.0,31.71,ESE,108,2.0,2.0,69,0.00,,,0.00,0,weatherlink.com 1.10,2013-02-21 13:31:00,
2013-02-21 06:47:00,20.8,12.0,31.71,SE,128,3.0,6.0,69,0.00,,,0.00,0,weatherlink.com 1.10,2013-02-21 13:47:00,
2013-02-21 07:02:00,20.3,12.0,31.72,NE,56,2.0,3.0,70,0.00,,,0.00,0,weatherlink.com 1.10,2013-02-21 14:02:00,
2013-02-21 07:17:00,19.4,11.0,31.73,NE,56,0.0,2.0,71,0.00,,,0.00,0,weatherlink.com 1.10,2013-02-21 14:17:00,
2013-02-21 07:32:00,19.4,12.0,31.74,SSE,155,5.0,5.0,72,0.00,,,0.00,7,weatherlink.com 1.10,2013-02-21 14:32:00,
2013-02-21 07:47:00,19.3,12.0,31.75,SSE,155,0.0,3.0,72,0.00,,,0.00,16,weatherlink.com 1.10,2013-02-21 14:47:00,
2013-02-21 08:02:00,18.6,12.0,31.75,SSE,147,0.0,1.0,74,0.00,,,0.00,18,weatherlink.com 1.10,2013-02-21 15:02:00,
2013-02-21 08:17:00,20.8,12.0,31.75,SSE,151,3.0,11.0,70,0.00,,,0.00,23,weatherlink.com 1.10,2013-02-21 15:17:00,
2013-02-21 08:32:00,20.8,12.0,31.76,SSE,161,5.0,9.0,69,0.00,,,0.00,26,weatherlink.com 1.10,2013-02-21 15:32:00,
2013-02-21 08:47:00,21.1,12.0,31.76,SSE,151,8.0,13.0,68,0.00,,,0.00,39,weatherlink.com 1.10,2013-02-21 15:47:00,
2013-02-21 09:02:00,22.1,12.0,31.76,SSE,152,1.0,16.0,65,0.00,,,0.00,167,weatherlink.com 1.10,2013-02-21 16:02:00,
2013-02-21 09:17:00,23.1,12.0,31.76,SSE,159,8.0,14.0,63,0.00,,,0.00,251,weatherlink.com 1.10,2013-02-21 16:17:00,
2013-02-21 09:32:00,22.7,12.0,31.76,South,175,7.0,12.0,64,0.00,,,0.00,128,weatherlink.com 1.10,2013-02-21 16:32:00,
2013-02-21 09:47:00,23.2,12.0,31.76,South,177,9.0,15.0,62,0.00,,,0.00,214,weatherlink.com 1.10,2013-02-21 16:47:00,
2013-02-21 10:02:00,23.3,12.0,31.76,South,175,8.0,15.0,62,0.00,,,0.00,178,weatherlink.com 1.10,2013-02-21 17:02:00,
2013-02-21 10:17:00,22.9,14.0,31.75,SSW,192,6.0,13.0,68,0.00,,,0.00,199,weatherlink.com 1.10,2013-02-21 17:17:00,
2013-02-21 10:32:00,23.0,14.0,31.75,SSW,196,8.0,10.0,68,0.00,,,0.00,225,weatherlink.com 1.10,2013-02-21 17:32:00,
2013-02-21 10:47:00,24.5,14.0,31.74,SSE,163,13.0,15.0,64,0.00,,,0.00,283,weatherlink.com 1.10,2013-02-21 17:47:00,
2013-02-21 11:02:00,25.3,14.0,31.73,South,169,12.0,15.0,62,0.00,,,0.00,269,weatherlink.com 1.10,2013-02-21 18:02:00,
2013-02-21 11:17:00,27.2,13.0,31.73,South,169,12.0,19.0,56,0.00,,,0.00,773,weatherlink.com 1.10,2013-02-21 18:17:00,
2013-02-21 11:32:00,27.3,14.0,31.72,SSE,165,9.0,19.0,57,0.00,,,0.00,330,weatherlink.com 1.10,2013-02-21 18:32:00,
2013-02-21 11:47:00,27.4,15.0,31.72,South,184,10.0,19.0,59,0.00,,,0.00,346,weatherlink.com 1.10,2013-02-21 18:47:00,
2013-02-21 12:02:00,26.5,14.0,31.72,SSW,205,8.0,16.0,60,0.00,,,0.00,248,weatherlink.com 1.10,2013-02-21 19:02:00,
2013-02-21 12:17:00,26.9,15.0,31.72,South,190,9.0,14.0,60,0.00,,,0.00,206,weatherlink.com 1.10,2013-02-21 19:17:00,
2013-02-21 12:32:00,27.3,14.0,31.71,South,171,12.0,13.0,58,0.00,,,0.00,167,weatherlink.com 1.10,2013-02-21 19:32:00,
2013-02-21 12:47:00,27.1,14.0,31.71,SSW,194,7.0,11.0,58,0.00,,,0.00,155,weatherlink.com 1.10,2013-02-21 19:47:00,
2013-02-21 13:02:00,27.3,14.0,31.71,South,175,4.0,9.0,58,0.00,,,0.00,163,weatherlink.com 1.10,2013-02-21 20:02:00,
2013-02-21 13:17:00,27.7,14.0,31.70,SSW,203,1.0,7.0,57,0.00,,,0.00,141,weatherlink.com 1.10,2013-02-21 20:17:00,
2013-02-21 13:32:00,28.2,14.0,31.70,South,184,0.0,4.0,55,0.00,,,0.00,141,weatherlink.com 1.10,2013-02-21 20:32:00,
2013-02-21 13:47:00,28.5,14.0,31.70,South,174,6.0,6.0,55,0.00,,,0.00,186,weatherlink.com 1.10,2013-02-21 20:47:00,
2013-02-21 14:02:00,28.8,14.0,31.70,South,177,4.0,6.0,55,0.00,,,0.00,183,weatherlink.com 1.10,2013-02-21 21:02:00,
2013-02-21 14:17:00,28.8,16.0,31.69,South,171,6.0,11.0,58,0.00,,,0.00,148,weatherlink.com 1.10,2013-02-21 21:17:00,
2013-02-21 14:32:00,29.5,16.0,31.68,SSE,158,8.0,11.0,58,0.00,,,0.00,264,weatherlink.com 1.10,2013-02-21 21:32:00,
2013-02-21 14:47:00,30.3,14.0,31.67,SSE,150,7.0,17.0,52,0.00,,,0.00,230,weatherlink.com 1.10,2013-02-21 21:47:00,
2013-02-21 15:02:00,31.3,15.0,31.66,SSE,156,11.0,18.0,52,0.00,,,0.00,571,weatherlink.com 1.10,2013-02-21 22:02:00,
2013-02-21 15:17:00,31.0,14.0,31.66,South,170,9.0,17.0,50,0.00,,,0.00,144,weatherlink.com 1.10,2013-02-21 22:17:00,
2013-02-21 15:32:00,30.1,14.0,31.65,South,190,7.0,17.0,51,0.00,,,0.00,116,weatherlink.com 1.10,2013-02-21 22:32:00,
2013-02-21 15:47:00,30.4,13.0,31.65,South,191,8.0,13.0,48,0.00,,,0.00,109,weatherlink.com 1.10,2013-02-21 22:47:00,
2013-02-21 16:03:00,30.4,14.0,31.64,South,187,13.0,16.0,50,0.00,,,0.00,65,weatherlink.com 1.10,2013-02-21 23:03:00,
2013-02-21 16:18:00,30.1,15.0,31.65,South,176,11.0,15.0,54,0.00,,,0.00,54,weatherlink.com 1.10,2013-02-21 23:18:00,
2013-02-21 16:33:00,30.0,15.0,31.65,South,180,8.0,12.0,53,0.00,,,0.00,44,weatherlink.com 1.10,2013-02-21 23:33:00,
2013-02-21 16:48:00,29.9,15.0,31.65,South,188,12.0,13.0,54,0.00,,,0.00,37,weatherlink.com 1.10,2013-02-21 23:48:00,
2013-02-21 17:03:00,29.8,15.0,31.65,South,177,13.0,17.0,55,0.00,,,0.00,32,weatherlink.com 1.10,2013-02-22 00:03:00,
2013-02-21 17:18:00,29.4,16.0,31.65,South,182,7.0,17.0,58,0.00,,,0.00,23,weatherlink.com 1.10,2013-02-22 00:18:00,
2013-02-21 17:33:00,29.2,16.0,31.65,South,169,8.0,12.0,58,0.00,,,0.00,12,weatherlink.com 1.10,2013-02-22 00:33:00,
2013-02-21 17:48:00,28.9,17.0,31.65,SSE,153,8.0,14.0,61,0.00,,,0.00,9,weatherlink.com 1.10,2013-02-22 00:48:00,
2013-02-21 18:03:00,28.5,17.0,31.65,South,187,5.0,9.0,63,0.00,,,0.00,0,weatherlink.com 1.10,2013-02-22 01:03:00,
2013-02-21 18:18:00,28.1,18.0,31.66,South,180,7.0,10.0,65,0.00,,,0.00,0,weatherlink.com 1.10,2013-02-22 01:18:00,
2013-02-21 18:33:00,28.1,18.0,31.65,SE,144,7.0,13.0,67,0.00,,,0.00,0,weatherlink.com 1.10,2013-02-22 01:33:00,
2013-02-21 18:48:00,28.3,18.0,31.65,South,176,5.0,10.0,65,0.00,,,0.00,0,weatherlink.com 1.10,2013-02-22 01:48:00,
2013-02-21 19:03:00,28.5,18.0,31.65,South,171,6.0,11.0,64,0.00,,,0.00,0,weatherlink.com 1.10,2013-02-22 02:03:00,
2013-02-21 19:18:00,28.5,18.0,31.65,South,173,6.0,9.0,64,0.00,,,0.00,0,weatherlink.com 1.10,2013-02-22 02:18:00,
2013-02-21 19:33:00,28.5,18.0,31.66,South,187,5.0,8.0,64,0.00,,,0.00,0,weatherlink.com 1.10,2013-02-22 02:33:00,
2013-02-21 19:48:00,28.6,18.0,31.66,South,177,6.0,12.0,64,0.00,,,0.00,0,weatherlink.com 1.10,2013-02-22 02:48:00,
2013-02-21 20:03:00,28.6,18.0,31.66,South,173,5.0,12.0,65,0.00,,,0.00,0,weatherlink.com 1.10,2013-02-22 03:03:00,
2013-02-21 20:18:00,28.5,18.0,31.66,South,190,3.0,8.0,65,0.00,,,0.00,0,weatherlink.com 1.10,2013-02-22 03:18:00,
2013-02-21 20:33:00,28.0,19.0,31.67,SSW,199,4.0,11.0,70,0.00,,,0.00,0,weatherlink.com 1.10,2013-02-22 03:33:00,
2013-02-21 20:48:00,27.9,19.0,31.67,South,182,6.0,12.0,70,0.00,,,0.00,0,weatherlink.com 1.10,2013-02-22 03:48:00,
2013-02-21 21:03:00,27.9,20.0,31.66,SSW,192,7.0,10.0,71,0.00,,,0.00,0,weatherlink.com 1.10,2013-02-22 04:03:00,
2013-02-21 21:18:00,27.9,20.0,31.67,South,171,2.0,6.0,72,0.00,,,0.00,0,weatherlink.com 1.10,2013-02-22 04:18:00,
2013-02-21 21:33:00,27.7,20.0,31.68,SE,142,7.0,7.0,74,0.00,,,0.00,0,weatherlink.com 1.10,2013-02-22 04:33:00,
2013-02-21 21:48:00,27.6,20.0,31.68,South,179,0.0,9.0,74,0.00,,,0.00,0,weatherlink.com 1.10,2013-02-22 04:48:00,
2013-02-21 22:03:00,27.7,20.0,31.67,South,179,0.0,7.0,74,0.00,,,0.00,0,weatherlink.com 1.10,2013-02-22 05:03:00,
2013-02-21 22:18:00,27.8,20.0,31.68,South,182,0.0,3.0,73,0.00,,,0.00,0,weatherlink.com 1.10,2013-02-22 05:18:00,
2013-02-21 22:33:00,27.2,22.0,31.68,NNW,348,0.0,5.0,81,0.00,,,0.00,0,weatherlink.com 1.10,2013-02-22 05:33:00,
2013-02-21 22:48:00,26.5,22.0,31.68,NE,42,2.0,3.0,83,0.00,,,0.00,0,weatherlink.com 1.10,2013-02-22 05:48:00,
2013-02-21 23:03:00,26.5,22.0,31.69,ENE,59,3.0,6.0,83,0.00,,,0.00,0,weatherlink.com 1.10,2013-02-22 06:03:00,
2013-02-21 23:18:00,26.9,22.0,31.68,NE,36,1.0,4.0,81,0.00,,,0.00,0,weatherlink.com 1.10,2013-02-22 06:18:00,
2013-02-21 23:33:00,27.3,21.0,31.69,SW,236,1.0,5.0,76,0.00,,,0.00,0,weatherlink.com 1.10,2013-02-22 06:33:00,
2013-02-21 23:48:00,27.7,21.0,31.69,WSW,254,0.0,7.0,75,0.00,,,0.00,0,weatherlink.com 1.10,2013-02-22 06:48:00,